createdAt,value
2019-04-20T00:00:49.179Z,8.41
2019-04-20T00:03:18.280Z,8.37
2019-04-20T00:05:48.933Z,8.30
2019-04-20T00:08:24.278Z,8.25
2019-04-20T00:10:58.015Z,8.19
2019-04-20T00:13:30.841Z,8.14
2019-04-20T00:15:53.616Z,8.04
2019-04-20T00:18:25.923Z,7.98
2019-04-20T00:21:08.153Z,7.94
2019-04-20T00:23:45.359Z,7.90
2019-04-20T00:26:56.376Z,7.85
2019-04-20T00:29:17.656Z,7.78
2019-04-20T00:31:44.594Z,7.69
2019-04-20T00:34:08.973Z,7.62
2019-04-20T00:36:33.075Z,7.57
2019-04-20T00:39:06.347Z,7.50
2019-04-20T00:41:44.052Z,7.43
2019-04-20T00:44:12.221Z,7.34
2019-04-20T00:46:53.512Z,7.29
2019-04-20T00:49:20.663Z,7.23
2019-04-20T00:52:00.479Z,7.18
2019-04-20T00:54:11.524Z,7.12
2019-04-20T00:56:41.377Z,7.06
2019-04-20T00:59:25.935Z,7.01
2019-04-20T01:02:02.276Z,6.98
2019-04-20T01:04:29.987Z,6.94
2019-04-20T01:07:22.609Z,6.90
2019-04-20T01:10:09.165Z,6.85
2019-04-20T01:12:42.065Z,6.76
2019-04-20T01:15:16.886Z,6.68
2019-04-20T01:17:43.051Z,6.63
2019-04-20T01:20:13.311Z,6.58
2019-04-20T01:22:51.359Z,6.56
2019-04-20T01:25:24.823Z,6.53
2019-04-20T01:28:17.724Z,6.50
2019-04-20T01:30:28.356Z,6.48
2019-04-20T01:33:06.234Z,6.45
2019-04-20T01:35:39.406Z,6.43
2019-04-20T01:38:12.671Z,6.41
2019-04-20T01:40:25.655Z,6.40
2019-04-20T01:42:55.388Z,6.38
2019-04-20T01:45:29.390Z,6.37
2019-04-20T01:47:59.462Z,6.35
2019-04-20T01:50:31.224Z,6.32
2019-04-20T01:53:11.488Z,6.30
2019-04-20T01:56:01.466Z,6.26
2019-04-20T01:58:35.158Z,6.24
2019-04-20T02:01:12.892Z,6.20
2019-04-20T02:03:50.269Z,6.17
2019-04-20T02:06:21.658Z,6.06
2019-04-20T02:08:52.833Z,6.06
2019-04-20T02:11:25.970Z,6.02
2019-04-20T02:13:57.122Z,5.98
2019-04-20T02:16:33.643Z,5.98
2019-04-20T02:19:10.688Z,5.94
2019-04-20T02:21:45.301Z,5.92
2019-04-20T02:24:01.277Z,5.90
2019-04-20T02:26:30.128Z,5.88
2019-04-20T02:29:27.650Z,5.85
2019-04-20T02:37:41.797Z,5.76
2019-04-20T02:40:05.544Z,5.70
2019-04-20T02:42:42.246Z,5.67
2019-04-20T02:45:12.666Z,5.63
2019-04-20T02:50:06.940Z,5.55
2019-04-20T02:52:52.471Z,5.49
2019-04-20T02:55:17.982Z,5.45
2019-04-20T02:57:50.955Z,5.35
2019-04-20T03:02:29.971Z,5.23
2019-04-20T03:04:56.178Z,5.20
2019-04-20T03:07:30.456Z,5.16
2019-04-20T03:10:05.549Z,5.07
2019-04-20T03:12:43.083Z,4.99
2019-04-20T03:15:09.592Z,4.91
2019-04-20T03:17:49.317Z,4.84
2019-04-20T03:20:20.005Z,4.75
2019-04-20T03:23:15.848Z,4.71
2019-04-20T03:25:39.702Z,4.65
2019-04-20T03:28:11.788Z,4.61
2019-04-20T03:33:51.598Z,4.62
2019-04-20T03:36:12.103Z,4.61
2019-04-20T03:38:36.087Z,4.60
2019-04-20T03:41:06.409Z,4.61
2019-04-20T03:43:20.447Z,4.60
2019-04-20T03:45:57.988Z,4.61
2019-04-20T03:48:37.087Z,4.55
2019-04-20T03:51:17.031Z,4.55
2019-04-20T03:53:55.479Z,4.55
2019-04-20T03:56:42.282Z,4.58
2019-04-20T03:59:19.501Z,4.61
2019-04-20T04:02:22.882Z,4.62
2019-04-20T04:04:56.348Z,4.65
2019-04-20T04:07:15.552Z,4.63
2019-04-20T04:09:56.414Z,4.62
2019-04-20T04:12:46.746Z,4.61
2019-04-20T04:15:16.819Z,4.60
2019-04-20T04:17:48.187Z,4.57
2019-04-20T04:20:20.735Z,4.54
2019-04-20T04:23:11.509Z,4.53
2019-04-20T04:25:29.746Z,4.55
2019-04-20T04:28:12.934Z,4.57
2019-04-20T04:30:42.805Z,4.62
2019-04-20T04:33:40.227Z,4.65
2019-04-20T04:35:44.293Z,4.77
2019-04-20T04:38:19.431Z,4.88
2019-04-20T04:41:06.485Z,4.96
2019-04-20T04:43:27.050Z,5.09
2019-04-20T04:45:36.981Z,5.29
2019-04-20T04:48:13.106Z,5.29
2019-04-20T04:50:49.616Z,5.45
2019-04-20T04:53:20.604Z,5.45
2019-04-20T04:55:47.704Z,5.53
2019-04-20T04:58:11.111Z,5.53
2019-04-20T05:00:42.952Z,5.61
2019-04-20T05:03:35.382Z,5.85
2019-04-20T05:06:26.483Z,5.99
2019-04-20T05:08:48.655Z,6.04
2019-04-20T05:11:13.288Z,6.14
2019-04-20T05:14:03.213Z,6.20
2019-04-20T05:16:46.439Z,6.26
2019-04-20T05:19:19.669Z,6.37
2019-04-20T05:22:11.101Z,6.50
2019-04-20T05:24:53.536Z,6.62
2019-04-20T05:27:46.626Z,6.78
2019-04-20T05:29:59.205Z,6.95
2019-04-20T05:32:41.321Z,7.04
2019-04-20T05:35:24.088Z,7.19
2019-04-20T05:40:44.370Z,7.39
2019-04-20T05:42:59.479Z,7.54
2019-04-20T05:45:32.357Z,7.67
2019-04-20T05:48:02.416Z,7.84
2019-04-20T05:50:37.974Z,7.99
2019-04-20T05:53:16.111Z,8.20
2019-04-20T05:55:41.640Z,8.39
2019-04-20T05:58:17.636Z,8.53
2019-04-20T06:00:48.389Z,8.64
2019-04-20T06:03:18.492Z,8.77
2019-04-20T06:06:00.869Z,8.84
2019-04-20T06:08:32.985Z,8.87
2019-04-20T06:10:52.281Z,8.95
2019-04-20T06:13:27.726Z,8.98
2019-04-20T06:16:13.892Z,9.10
2019-04-20T06:18:56.144Z,9.20
2019-04-20T06:21:52.900Z,9.36
2019-04-20T06:24:03.797Z,9.51
2019-04-20T06:29:19.380Z,9.76
2019-04-20T06:31:53.490Z,9.90
2019-04-20T06:37:18.765Z,10.24
2019-04-20T06:39:44.831Z,10.45
2019-04-20T06:44:41.424Z,10.66
2019-04-20T06:47:19.915Z,10.75
2019-04-20T06:49:45.345Z,10.87
2019-04-20T06:52:29.772Z,10.98
2019-04-20T06:55:09.948Z,11.12
2019-04-20T07:00:27.030Z,11.54
2019-04-20T07:05:21.106Z,11.71
2019-04-20T07:12:46.649Z,12.13
2019-04-20T07:15:19.946Z,12.24
2019-04-20T07:18:08.203Z,12.30
2019-04-20T07:20:55.455Z,12.45
2019-04-20T07:23:26.525Z,12.66
2019-04-20T07:25:47.847Z,12.93
2019-04-20T07:28:26.504Z,13.17
2019-04-20T07:30:50.329Z,13.39
2019-04-20T07:33:24.389Z,13.57
2019-04-20T07:35:52.388Z,13.80
2019-04-20T07:40:56.088Z,14.23
2019-04-20T07:43:30.092Z,14.38
2019-04-20T07:46:00.095Z,14.59
2019-04-20T07:48:30.745Z,14.68
2019-04-20T07:50:55.388Z,14.77
2019-04-20T07:53:30.656Z,14.80
2019-04-20T07:56:06.066Z,14.93
2019-04-20T07:58:28.304Z,15.08
2019-04-20T08:01:40.198Z,15.24
2019-04-20T08:04:09.314Z,15.32
2019-04-20T08:06:37.936Z,15.54
2019-04-20T08:09:16.075Z,15.71
2019-04-20T08:11:56.558Z,15.93
2019-04-20T08:14:25.707Z,16.14
2019-04-20T08:17:12.280Z,16.34
2019-04-20T08:19:31.572Z,16.52
2019-04-20T08:21:57.099Z,16.71
2019-04-20T08:24:31.725Z,16.87
2019-04-20T08:26:50.753Z,17.00
2019-04-20T08:29:52.960Z,17.14
2019-04-20T08:32:38.859Z,17.30
2019-04-20T08:35:13.911Z,17.44
2019-04-20T08:37:52.148Z,17.53
2019-04-20T08:40:14.746Z,17.67
2019-04-20T08:43:00.475Z,17.82
2019-04-20T08:45:24.787Z,17.92
2019-04-20T08:50:22.313Z,18.08
2019-04-20T08:53:11.179Z,18.28
2019-04-20T08:55:19.732Z,18.45
2019-04-20T08:57:35.465Z,18.59
2019-04-20T09:00:09.097Z,18.63
2019-04-20T09:02:41.294Z,18.58
2019-04-20T09:05:28.024Z,18.60
2019-04-20T09:07:53.562Z,18.59
2019-04-20T09:10:34.314Z,18.61
2019-04-20T09:13:01.479Z,18.70
2019-04-20T09:15:16.836Z,18.82
2019-04-20T09:17:57.111Z,18.92
2019-04-20T09:20:31.843Z,19.07
2019-04-20T09:23:21.548Z,19.23
2019-04-20T09:28:32.324Z,19.33
2019-04-20T09:31:11.856Z,19.39
2019-04-20T09:34:11.460Z,19.52
2019-04-20T09:36:46.205Z,19.68
2019-04-20T09:39:33.822Z,19.72
2019-04-20T09:42:21.263Z,19.69
2019-04-20T09:44:54.444Z,19.72
2019-04-20T09:47:27.418Z,19.79
2019-04-20T09:50:03.520Z,19.75
2019-04-20T09:52:40.661Z,19.74
2019-04-20T09:55:10.923Z,19.80
2019-04-20T09:57:43.865Z,19.82
2019-04-20T10:00:15.470Z,19.86
2019-04-20T10:02:34.461Z,19.83
2019-04-20T10:05:02.090Z,19.91
2019-04-20T10:07:35.370Z,19.97
2019-04-20T10:10:15.585Z,20.04
2019-04-20T10:12:34.084Z,20.16
2019-04-20T10:15:12.204Z,20.24
2019-04-20T10:17:35.790Z,20.32
2019-04-20T10:20:12.350Z,20.41
2019-04-20T10:22:38.563Z,20.51
2019-04-20T10:25:08.656Z,20.55
2019-04-20T10:27:40.614Z,20.61
2019-04-20T10:30:10.412Z,20.71
2019-04-20T10:32:45.158Z,20.79
2019-04-20T10:35:15.014Z,20.82
2019-04-20T10:37:49.417Z,20.85
2019-04-20T10:40:34.433Z,20.84
2019-04-20T10:42:50.780Z,20.86
2019-04-20T10:45:21.290Z,20.89
2019-04-20T10:47:51.099Z,20.92
2019-04-20T10:50:22.999Z,21.02
2019-04-20T10:52:53.990Z,21.01
2019-04-20T10:55:25.056Z,20.94
2019-04-20T10:57:55.557Z,20.86
2019-04-20T11:00:41.791Z,20.91
2019-04-20T11:03:15.953Z,21.03
2019-04-20T11:05:46.759Z,21.07
2019-04-20T11:08:16.858Z,21.07
2019-04-20T11:11:00.281Z,21.05
2019-04-20T11:13:23.606Z,21.07
2019-04-20T11:15:53.053Z,21.08
2019-04-20T11:18:22.642Z,21.08
2019-04-20T11:20:53.260Z,21.14
2019-04-20T11:23:22.807Z,21.11
2019-04-20T11:25:53.111Z,21.12
2019-04-20T11:28:22.535Z,21.13
2019-04-20T11:30:52.205Z,21.21
2019-04-20T11:33:22.397Z,21.13
2019-04-20T11:35:51.845Z,21.12
2019-04-20T11:38:21.982Z,21.13
2019-04-20T11:41:04.135Z,21.21
2019-04-20T11:43:23.964Z,21.18
2019-04-20T11:45:54.515Z,21.17
2019-04-20T11:48:25.373Z,21.15
2019-04-20T11:50:55.830Z,21.16
2019-04-20T11:53:26.882Z,21.19
2019-04-20T11:55:56.605Z,21.21
2019-04-20T11:58:26.239Z,21.34
2019-04-20T12:01:03.256Z,21.47
2019-04-20T12:03:35.370Z,21.48
2019-04-20T12:06:01.642Z,21.62
2019-04-20T12:08:31.173Z,21.74
2019-04-20T12:11:12.054Z,21.86
2019-04-20T12:13:32.233Z,21.89
2019-04-20T12:16:01.715Z,21.87
2019-04-20T12:18:31.710Z,21.83
2019-04-20T12:21:02.913Z,21.77
2019-04-20T12:23:33.927Z,21.72
2019-04-20T12:26:04.678Z,21.70
2019-04-20T12:28:35.489Z,21.65
2019-04-20T12:31:11.852Z,21.70
2019-04-20T12:33:36.729Z,21.64
2019-04-20T12:36:08.539Z,21.65
2019-04-20T12:38:39.136Z,21.69
2019-04-20T12:41:10.994Z,21.75
2019-04-20T12:43:39.737Z,21.73
2019-04-20T12:46:09.927Z,21.66
2019-04-20T12:48:39.666Z,21.62
2019-04-20T12:51:09.456Z,21.63
2019-04-20T12:53:38.855Z,21.66
2019-04-20T12:56:08.646Z,21.67
2019-04-20T12:58:41.648Z,21.70
2019-04-20T13:01:10.118Z,21.78
2019-04-20T13:03:39.632Z,21.80
2019-04-20T13:06:09.931Z,21.76
2019-04-20T13:08:45.105Z,21.70
2019-04-20T13:11:20.404Z,21.65
2019-04-20T13:14:35.616Z,21.66
2019-04-20T13:19:33.534Z,21.64
2019-04-20T13:22:03.281Z,21.65
2019-04-20T13:24:34.662Z,21.66
2019-04-20T13:27:04.843Z,21.62
2019-04-20T13:29:35.120Z,21.65
2019-04-20T13:32:05.484Z,21.74
2019-04-20T13:34:36.097Z,21.82
2019-04-20T13:37:06.376Z,21.82
2019-04-20T13:39:36.000Z,21.77
2019-04-20T13:42:12.149Z,21.78
2019-04-20T13:44:37.015Z,21.92
2019-04-20T13:47:12.757Z,21.92
2019-04-20T13:49:43.031Z,21.94
2019-04-20T13:52:12.933Z,21.96
2019-04-20T13:54:42.642Z,21.98
2019-04-20T13:57:17.776Z,21.91
2019-04-20T13:59:53.735Z,21.87
2019-04-20T14:02:51.117Z,21.84
2019-04-20T14:05:31.344Z,21.84
2019-04-20T14:08:05.254Z,21.77
2019-04-20T14:10:35.425Z,21.60
2019-04-20T14:13:12.095Z,21.55
2019-04-20T14:15:37.406Z,21.54
2019-04-20T14:18:07.284Z,21.50
2019-04-20T14:20:38.073Z,21.45
2019-04-20T14:23:07.563Z,21.40
2019-04-20T14:25:38.663Z,21.38
2019-04-20T14:28:09.091Z,21.37
2019-04-20T14:30:38.560Z,21.32
2019-04-20T14:33:08.540Z,21.27
2019-04-20T14:35:38.806Z,21.26
2019-04-20T14:38:08.365Z,21.32
2019-04-20T14:40:37.813Z,21.39
2019-04-20T14:43:07.260Z,21.36
2019-04-20T14:45:36.866Z,21.41
2019-04-20T14:48:07.834Z,21.46
2019-04-20T14:50:38.064Z,21.52
2019-04-20T14:53:07.487Z,21.49
2019-04-20T14:55:37.611Z,21.47
2019-04-20T14:58:13.304Z,21.43
2019-04-20T15:00:58.537Z,21.47
2019-04-20T15:03:30.711Z,21.47
2019-04-20T15:06:03.110Z,21.41
2019-04-20T15:08:32.571Z,21.33
2019-04-20T15:11:02.954Z,21.33
2019-04-20T15:13:32.976Z,21.29
2019-04-20T15:16:02.521Z,21.26
2019-04-20T15:18:37.667Z,21.32
2019-04-20T15:21:09.346Z,21.37
2019-04-20T15:23:39.553Z,21.44
2019-04-20T15:26:09.082Z,21.41
2019-04-20T15:28:38.670Z,21.45
2019-04-20T15:31:08.165Z,21.46
2019-04-20T15:33:39.102Z,21.54
2019-04-20T15:36:08.614Z,21.58
2019-04-20T15:38:38.788Z,21.63
2019-04-20T15:41:11.502Z,21.73
2019-04-20T15:43:39.590Z,21.89
2019-04-20T15:46:09.622Z,22.04
2019-04-20T15:48:42.117Z,22.14
2019-04-20T15:51:12.072Z,22.37
2019-04-20T15:53:41.836Z,22.64
2019-04-20T15:56:11.953Z,22.99
2019-04-20T15:58:41.447Z,23.38
2019-04-20T16:01:12.171Z,23.69
2019-04-20T16:03:53.159Z,24.03
2019-04-20T16:06:23.118Z,24.11
2019-04-20T16:08:54.537Z,24.15
2019-04-20T16:11:24.343Z,24.27
2019-04-20T16:13:55.824Z,24.35
2019-04-20T16:16:25.890Z,24.53
2019-04-20T16:18:56.814Z,24.71
2019-04-20T16:21:29.822Z,24.94
2019-04-20T16:24:16.921Z,25.22
2019-04-20T16:26:51.570Z,25.32
2019-04-20T16:29:21.808Z,25.51
2019-04-20T16:31:52.158Z,25.63
2019-04-20T16:34:25.406Z,25.65
2019-04-20T16:36:56.075Z,25.81
2019-04-20T16:39:24.670Z,25.85
2019-04-20T16:41:56.096Z,25.80
2019-04-20T16:44:27.317Z,25.66
2019-04-20T16:46:58.263Z,25.51
2019-04-20T16:49:28.931Z,25.42
2019-04-20T16:52:00.870Z,25.28
2019-04-20T16:54:30.292Z,25.19
2019-04-20T16:57:00.525Z,25.11
2019-04-20T16:59:33.602Z,25.07
2019-04-20T17:02:02.518Z,25.13
2019-04-20T17:04:33.619Z,25.10
2019-04-20T17:07:29.002Z,25.10
2019-04-20T17:09:58.478Z,25.05
2019-04-20T17:12:28.165Z,24.91
2019-04-20T17:14:58.157Z,24.87
2019-04-20T17:17:27.705Z,24.75
2019-04-20T17:19:57.656Z,24.59
2019-04-20T17:22:27.616Z,24.42
2019-04-20T17:24:58.292Z,24.38
2019-04-20T17:27:46.920Z,24.23
2019-04-20T17:30:35.792Z,24.08
2019-04-20T17:33:08.273Z,23.87
2019-04-20T17:35:52.585Z,23.38
2019-04-20T17:38:16.401Z,22.93
2019-04-20T17:41:02.974Z,22.63
2019-04-20T17:43:24.901Z,22.54
2019-04-20T17:45:59.197Z,22.57
2019-04-20T17:48:33.241Z,22.58
2019-04-20T17:51:12.281Z,22.40
2019-04-20T17:54:05.329Z,22.33
2019-04-20T17:56:40.580Z,22.25
2019-04-20T17:59:10.473Z,22.09
2019-04-20T18:02:17.502Z,21.73
2019-04-20T18:05:12.948Z,21.33
2019-04-20T18:07:40.731Z,20.95
2019-04-20T18:10:12.705Z,20.55
2019-04-20T18:12:34.499Z,20.13
2019-04-20T18:15:14.871Z,19.74
2019-04-20T18:18:00.307Z,19.41
2019-04-20T18:20:25.224Z,19.08
2019-04-20T18:22:56.866Z,18.73
2019-04-20T18:25:57.440Z,18.43
2019-04-20T18:28:13.278Z,18.20
2019-04-20T18:30:56.698Z,18.02
2019-04-20T18:33:28.806Z,17.83
2019-04-20T18:35:56.211Z,17.63
2019-04-20T18:38:26.142Z,17.48
2019-04-20T18:41:02.733Z,17.32
2019-04-20T18:44:30.613Z,17.16
2019-04-20T18:47:18.452Z,17.02
2019-04-20T18:49:38.749Z,16.82
2019-04-20T18:51:58.196Z,16.68
2019-04-20T18:54:32.273Z,16.57
2019-04-20T18:57:01.632Z,16.48
2019-04-20T18:59:40.053Z,16.39
2019-04-20T19:02:06.793Z,16.32
2019-04-20T19:04:33.637Z,16.21
2019-04-20T19:07:03.766Z,16.08
2019-04-20T19:09:34.691Z,15.90
2019-04-20T19:12:09.295Z,15.79
2019-04-20T19:14:49.214Z,15.65
2019-04-20T19:17:45.136Z,15.53
2019-04-20T19:20:11.899Z,15.41
2019-04-20T19:22:41.988Z,15.27
2019-04-20T19:25:18.375Z,15.14
2019-04-20T19:27:50.930Z,15.03
2019-04-20T19:30:27.628Z,14.93
2019-04-20T19:33:09.112Z,14.85
2019-04-20T19:35:37.614Z,14.76
2019-04-20T19:38:05.462Z,14.67
2019-04-20T19:40:33.733Z,14.55
2019-04-20T19:43:08.476Z,14.45
2019-04-20T19:45:46.707Z,14.36
2019-04-20T19:48:12.290Z,14.27
2019-04-20T19:50:54.630Z,14.19
2019-04-20T19:53:22.995Z,14.12
2019-04-20T19:55:45.181Z,14.06
2019-04-20T19:58:17.565Z,13.97
2019-04-20T20:00:55.543Z,13.86
2019-04-20T20:03:23.871Z,13.79
2019-04-20T20:05:55.770Z,13.69
2019-04-20T20:08:29.577Z,13.59
2019-04-20T20:10:59.238Z,13.49
2019-04-20T20:13:37.038Z,13.38
2019-04-20T20:16:08.710Z,13.27
2019-04-20T20:18:46.651Z,13.16
2019-04-20T20:21:15.185Z,13.06
2019-04-20T20:23:32.225Z,12.95
2019-04-20T20:26:05.095Z,12.85
2019-04-20T20:28:43.708Z,12.73
2019-04-20T20:31:17.035Z,12.59
2019-04-20T20:33:49.400Z,12.44
2019-04-20T20:36:12.629Z,12.34
2019-04-20T20:38:44.844Z,12.24
2019-04-20T20:41:19.455Z,12.23
2019-04-20T20:43:48.170Z,12.23
2019-04-20T20:46:19.432Z,12.25
2019-04-20T20:49:04.802Z,12.26
2019-04-20T20:51:39.161Z,12.29
2019-04-20T20:53:57.931Z,12.29
2019-04-20T20:56:24.078Z,12.31
2019-04-20T20:58:59.266Z,12.32
2019-04-20T21:01:25.370Z,12.32
2019-04-20T21:03:53.073Z,12.32
2019-04-20T21:06:22.752Z,12.26
2019-04-20T21:08:56.064Z,12.21
2019-04-20T21:11:28.931Z,12.14
2019-04-20T21:13:56.304Z,12.09
2019-04-20T21:16:31.519Z,12.04
2019-04-20T21:19:14.749Z,12.00
2019-04-20T21:21:41.300Z,11.97
2019-04-20T21:24:10.813Z,11.94
2019-04-20T21:26:41.958Z,11.89
2019-04-20T21:29:08.147Z,11.84
2019-04-20T21:31:38.555Z,11.79
2019-04-20T21:34:13.124Z,11.75
2019-04-20T21:36:39.196Z,11.70
2019-04-20T21:39:16.303Z,11.65
2019-04-20T21:41:52.452Z,11.61
2019-04-20T21:44:21.795Z,11.58
2019-04-20T21:46:51.230Z,11.56
2019-04-20T21:49:33.474Z,11.51
2019-04-20T21:51:57.240Z,11.46
2019-04-20T21:54:20.486Z,11.41
2019-04-20T21:56:56.363Z,11.36
2019-04-20T21:59:30.609Z,11.33
2019-04-20T22:01:58.425Z,11.30
2019-04-20T22:04:25.030Z,11.25
2019-04-20T22:06:56.102Z,11.23
2019-04-20T22:09:34.449Z,11.20
2019-04-20T22:11:58.120Z,11.20
2019-04-20T22:14:31.631Z,11.21
2019-04-20T22:17:00.797Z,11.19
2019-04-20T22:19:40.116Z,11.17
2019-04-20T22:22:12.909Z,11.17
2019-04-20T22:24:46.444Z,11.16
2019-04-20T22:27:12.895Z,11.15
2019-04-20T22:29:36.303Z,11.11
2019-04-20T22:32:11.566Z,11.09
2019-04-20T22:34:37.698Z,11.06
2019-04-20T22:37:13.593Z,11.06
2019-04-20T22:39:46.660Z,11.04
2019-04-20T22:42:14.319Z,11.02
2019-04-20T22:44:47.998Z,11.00
2019-04-20T22:47:22.542Z,10.99
2019-04-20T22:49:59.586Z,10.99
2019-04-20T22:52:39.655Z,10.97
2019-04-20T22:55:12.676Z,10.95
2019-04-20T22:57:38.742Z,10.94
2019-04-20T23:00:02.709Z,10.89
2019-04-20T23:02:26.244Z,10.84
2019-04-20T23:04:54.999Z,10.81
2019-04-20T23:07:24.561Z,10.78
2019-04-20T23:09:56.662Z,10.75
2019-04-20T23:12:26.937Z,10.73
2019-04-20T23:14:56.515Z,10.70
2019-04-20T23:17:33.563Z,10.68
2019-04-20T23:20:00.010Z,10.65
2019-04-20T23:22:36.842Z,10.62
2019-04-20T23:24:59.533Z,10.59
2019-04-20T23:27:31.527Z,10.56
2019-04-20T23:30:03.635Z,10.51
2019-04-20T23:32:32.026Z,10.47
2019-04-20T23:35:05.913Z,10.41
2019-04-20T23:37:36.803Z,10.36
2019-04-20T23:40:08.172Z,10.31
2019-04-20T23:42:45.480Z,10.28
2019-04-20T23:45:31.486Z,10.22
2019-04-20T23:48:04.414Z,10.18
2019-04-20T23:50:48.962Z,10.12
2019-04-20T23:53:21.259Z,10.09
2019-04-20T23:55:35.950Z,10.06
2019-04-20T23:58:07.452Z,10.03
